sensor_id;sensor_type;location;lat;lon;timestamp;pressure;altitude;pressure_sealevel;temperature;humidity
82262;BME280;71861;52.364;6.580;2023-10-19T03:02:34;99376.03;;;10.25;96.93
82262;BME280;71861;52.364;6.580;2023-10-19T03:05:01;99378.63;;;10.25;97.09
82262;BME280;71861;52.364;6.580;2023-10-19T03:07:29;99362.69;;;10.28;96.96
82262;BME280;71861;52.364;6.580;2023-10-19T03:09:54;99374.47;;;10.31;96.81
82262;BME280;71861;52.364;6.580;2023-10-19T03:12:20;99366.47;;;10.32;96.57
82262;BME280;71861;52.364;6.580;2023-10-19T03:14:45;99355.13;;;10.33;96.82
82262;BME280;71861;52.364;6.580;2023-10-19T03:17:13;99354.75;;;10.36;96.59
82262;BME280;71861;52.364;6.580;2023-10-19T03:19:38;99359.56;;;10.39;96.72
82262;BME280;71861;52.364;6.580;2023-10-19T03:22:03;99370.53;;;10.41;96.52
82262;BME280;71861;52.364;6.580;2023-10-19T03:24:31;99360.75;;;10.43;96.32
82262;BME280;71861;52.364;6.580;2023-10-19T03:27:09;99362.97;;;10.46;96.77
82262;BME280;71861;52.364;6.580;2023-10-19T03:29:46;99359.97;;;10.49;97.15
82262;BME280;71861;52.364;6.580;2023-10-19T03:32:13;99360.41;;;10.53;97.15
82262;BME280;71861;52.364;6.580;2023-10-19T03:34:39;99361.03;;;10.55;97.43
82262;BME280;71861;52.364;6.580;2023-10-19T03:37:08;99360.44;;;10.59;97.15
82262;BME280;71861;52.364;6.580;2023-10-19T03:39:39;99360.06;;;10.62;97.58
82262;BME280;71861;52.364;6.580;2023-10-19T03:42:05;99357.06;;;10.65;97.53
82262;BME280;71861;52.364;6.580;2023-10-19T03:44:34;99354.09;;;10.68;97.43
82262;BME280;71861;52.364;6.580;2023-10-19T03:47:14;99352.88;;;10.71;97.93
82262;BME280;71861;52.364;6.580;2023-10-19T03:49:44;99354.31;;;10.73;97.33
82262;BME280;71861;52.364;6.580;2023-10-19T03:52:09;99342.72;;;10.76;97.79
82262;BME280;71861;52.364;6.580;2023-10-19T03:54:35;99350.94;;;10.79;97.80
82262;BME280;71861;52.364;6.580;2023-10-19T03:57:05;99338.13;;;10.84;97.85
82262;BME280;71861;52.364;6.580;2023-10-19T03:59:32;99342.78;;;10.89;97.70
82262;BME280;71861;52.364;6.580;2023-10-19T04:01:59;99337.97;;;10.92;97.83
82262;BME280;71861;52.364;6.580;2023-10-19T04:04:25;99346.19;;;10.96;97.65
82262;BME280;71861;52.364;6.580;2023-10-19T04:06:52;99341.22;;;11.01;97.46
82262;BME280;71861;52.364;6.580;2023-10-19T04:09:23;99342.22;;;11.06;97.45
82262;BME280;71861;52.364;6.580;2023-10-19T04:11:48;99336.41;;;11.11;97.41
82262;BME280;71861;52.364;6.580;2023-10-19T04:14:14;99340.81;;;11.17;97.56
82262;BME280;71861;52.364;6.580;2023-10-19T04:16:40;99343.03;;;11.20;97.42
82262;BME280;71861;52.364;6.580;2023-10-19T04:19:08;99337.03;;;11.26;97.51
82262;BME280;71861;52.364;6.580;2023-10-19T04:21:34;99325.06;;;11.31;97.99
82262;BME280;71861;52.364;6.580;2023-10-19T04:24:03;99327.88;;;11.36;98.05
82262;BME280;71861;52.364;6.580;2023-10-19T04:26:29;99329.06;;;11.40;98.18
82262;BME280;71861;52.364;6.580;2023-10-19T04:29:02;99325.84;;;11.45;97.91
82262;BME280;71861;52.364;6.580;2023-10-19T04:31:34;99321.84;;;11.49;97.94
82262;BME280;71861;52.364;6.580;2023-10-19T04:34:02;99327.25;;;11.54;97.99
82262;BME280;71861;52.364;6.580;2023-10-19T04:36:32;99325.88;;;11.58;97.87
82262;BME280;71861;52.364;6.580;2023-10-19T04:38:58;99319.47;;;11.60;97.85
82262;BME280;71861;52.364;6.580;2023-10-19T04:41:25;99319.69;;;11.65;97.71
82262;BME280;71861;52.364;6.580;2023-10-19T04:43:52;99312.25;;;11.69;97.74
82262;BME280;71861;52.364;6.580;2023-10-19T04:46:17;99302.25;;;11.72;98.02
82262;BME280;71861;52.364;6.580;2023-10-19T04:48:43;99307.06;;;11.75;98.02
82262;BME280;71861;52.364;6.580;2023-10-19T04:51:09;99315.28;;;11.79;97.64
82262;BME280;71861;52.364;6.580;2023-10-19T04:53:35;99302.66;;;11.83;97.69
82262;BME280;71861;52.364;6.580;2023-10-19T04:56:00;99298.66;;;11.87;97.62
82262;BME280;71861;52.364;6.580;2023-10-19T04:58:26;99307.06;;;11.89;97.69
82262;BME280;71861;52.364;6.580;2023-10-19T05:00:52;99300.63;;;11.91;97.97
82262;BME280;71861;52.364;6.580;2023-10-19T05:03:18;99310.44;;;11.96;98.23
82262;BME280;71861;52.364;6.580;2023-10-19T05:05:44;99303.84;;;12.00;98.05
82262;BME280;71861;52.364;6.580;2023-10-19T05:08:09;99306.03;;;12.03;98.33
82262;BME280;71861;52.364;6.580;2023-10-19T05:10:34;99309.22;;;12.05;98.24
82262;BME280;71861;52.364;6.580;2023-10-19T05:12:59;99301.81;;;12.08;98.67
82262;BME280;71861;52.364;6.580;2023-10-19T05:15:25;99301.19;;;12.13;98.34
82262;BME280;71861;52.364;6.580;2023-10-19T05:17:50;99303.38;;;12.16;98.21
82262;BME280;71861;52.364;6.580;2023-10-19T05:20:15;99297.78;;;12.19;98.19
82262;BME280;71861;52.364;6.580;2023-10-19T05:22:40;99303.38;;;12.22;98.53
82262;BME280;71861;52.364;6.580;2023-10-19T05:25:06;99305.56;;;12.25;98.21
82262;BME280;71861;52.364;6.580;2023-10-19T05:27:32;99300.97;;;12.27;98.28
82262;BME280;71861;52.364;6.580;2023-10-19T05:29:58;99305.75;;;12.30;98.34
82262;BME280;71861;52.364;6.580;2023-10-19T05:32:23;99304.53;;;12.33;98.09
82262;BME280;71861;52.364;6.580;2023-10-19T05:34:49;99303.34;;;12.35;98.29
82262;BME280;71861;52.364;6.580;2023-10-19T05:37:14;99300.53;;;12.37;98.27
82262;BME280;71861;52.364;6.580;2023-10-19T05:39:41;99312.34;;;12.39;98.15
82262;BME280;71861;52.364;6.580;2023-10-19T05:42:07;99315.34;;;12.43;98.35
82262;BME280;71861;52.364;6.580;2023-10-19T05:44:32;99314.94;;;12.46;98.51
82262;BME280;71861;52.364;6.580;2023-10-19T05:46:57;99319.72;;;12.49;98.40
82262;BME280;71861;52.364;6.580;2023-10-19T05:49:26;99317.69;;;12.51;98.29
82262;BME280;71861;52.364;6.580;2023-10-19T05:51:51;99331.31;;;12.53;98.71
82262;BME280;71861;52.364;6.580;2023-10-19T05:54:16;99326.72;;;12.55;98.66
82262;BME280;71861;52.364;6.580;2023-10-19T05:56:42;99333.31;;;12.57;98.69
82262;BME280;71861;52.364;6.580;2023-10-19T05:59:07;99339.94;;;12.60;98.34
82262;BME280;71861;52.364;6.580;2023-10-19T06:01:33;99339.72;;;12.61;98.50
82262;BME280;71861;52.364;6.580;2023-10-19T06:03:59;99336.91;;;12.63;98.46
82262;BME280;71861;52.364;6.580;2023-10-19T06:06:24;99342.91;;;12.63;98.65
82262;BME280;71861;52.364;6.580;2023-10-19T06:08:49;99339.09;;;12.66;98.52
82262;BME280;71861;52.364;6.580;2023-10-19T06:11:18;99334.66;;;12.66;98.33
82262;BME280;71861;52.364;6.580;2023-10-19T06:13:43;99344.69;;;12.69;98.25
82262;BME280;71861;52.364;6.580;2023-10-19T06:16:08;99344.47;;;12.71;98.32
82262;BME280;71861;52.364;6.580;2023-10-19T06:18:34;99343.28;;;12.73;98.32
82262;BME280;71861;52.364;6.580;2023-10-19T06:20:59;99350.06;;;12.74;98.12
82262;BME280;71861;52.364;6.580;2023-10-19T06:23:24;99357.69;;;12.76;98.10
82262;BME280;71861;52.364;6.580;2023-10-19T06:25:49;99364.53;;;12.77;97.81
82262;BME280;71861;52.364;6.580;2023-10-19T06:28:16;99350.47;;;12.78;97.83
82262;BME280;71861;52.364;6.580;2023-10-19T06:30:41;99352.88;;;12.79;97.72
82262;BME280;71861;52.364;6.580;2023-10-19T06:33:07;99361.28;;;12.81;97.66
82262;BME280;71861;52.364;6.580;2023-10-19T06:35:33;99367.28;;;12.82;97.97
82262;BME280;71861;52.364;6.580;2023-10-19T06:37:59;99374.91;;;12.83;97.63
82262;BME280;71861;52.364;6.580;2023-10-19T06:40:25;99364.47;;;12.83;97.53
82262;BME280;71861;52.364;6.580;2023-10-19T06:42:51;99366.09;;;12.84;97.29
82262;BME280;71861;52.364;6.580;2023-10-19T06:45:17;99367.88;;;12.84;97.09
82262;BME280;71861;52.364;6.580;2023-10-19T06:47:44;99378.91;;;12.86;97.13
82262;BME280;71861;52.364;6.580;2023-10-19T06:50:10;99378.91;;;12.86;96.93
82262;BME280;71861;52.364;6.580;2023-10-19T06:52:39;99383.09;;;12.87;97.21
82262;BME280;71861;52.364;6.580;2023-10-19T06:55:04;99373.69;;;12.86;97.45
82262;BME280;71861;52.364;6.580;2023-10-19T06:57:30;99376.88;;;12.88;97.18
82262;BME280;71861;52.364;6.580;2023-10-19T06:59:57;99376.47;;;12.91;97.11
82262;BME280;71861;52.364;6.580;2023-10-19T07:02:22;99374.06;;;12.89;96.82
82262;BME280;71861;52.364;6.580;2023-10-19T07:04:48;99386.47;;;12.94;96.86
82262;BME280;71861;52.364;6.580;2023-10-19T07:07:14;99383.09;;;12.93;96.82
82262;BME280;71861;52.364;6.580;2023-10-19T07:09:39;99384.69;;;12.94;96.60
82262;BME280;71861;52.364;6.580;2023-10-19T07:12:04;99391.50;;;12.95;96.61
82262;BME280;71861;52.364;6.580;2023-10-19T07:14:32;99389.69;;;12.96;96.45
82262;BME280;71861;52.364;6.580;2023-10-19T07:16:57;99394.47;;;12.99;96.74
82262;BME280;71861;52.364;6.580;2023-10-19T07:19:22;99392.88;;;12.98;96.62
82262;BME280;71861;52.364;6.580;2023-10-19T07:21:48;99400.31;;;13.01;96.63
82262;BME280;71861;52.364;6.580;2023-10-19T07:24:15;99389.91;;;13.01;96.80
82262;BME280;71861;52.364;6.580;2023-10-19T07:26:40;99395.72;;;13.03;96.73
82262;BME280;71861;52.364;6.580;2023-10-19T07:29:23;99399.69;;;13.05;96.80
82262;BME280;71861;52.364;6.580;2023-10-19T07:31:49;99398.69;;;13.06;96.79
82262;BME280;71861;52.364;6.580;2023-10-19T07:34:17;99399.06;;;13.10;96.85
82262;BME280;71861;52.364;6.580;2023-10-19T07:36:43;99389.25;;;13.12;96.73
82262;BME280;71861;52.364;6.580;2023-10-19T07:39:08;99392.41;;;13.14;96.75
82262;BME280;71861;52.364;6.580;2023-10-19T07:41:39;99401.66;;;13.16;96.66
82262;BME280;71861;52.364;6.580;2023-10-19T07:44:04;99397.03;;;13.18;96.62
82262;BME280;71861;52.364;6.580;2023-10-19T07:46:29;99392.41;;;13.20;96.73
82262;BME280;71861;52.364;6.580;2023-10-19T07:48:56;99397.19;;;13.23;96.67
82262;BME280;71861;52.364;6.580;2023-10-19T07:51:24;99402.81;;;13.27;96.71
82262;BME280;71861;52.364;6.580;2023-10-19T07:53:50;99402.38;;;13.30;96.69
82262;BME280;71861;52.364;6.580;2023-10-19T07:56:15;99407.19;;;13.33;96.54
82262;BME280;71861;52.364;6.580;2023-10-19T07:58:40;99410.38;;;13.35;96.48
82262;BME280;71861;52.364;6.580;2023-10-19T08:01:06;99394.09;;;13.39;96.33
82262;BME280;71861;52.364;6.580;2023-10-19T08:03:31;99405.13;;;13.42;96.49
82262;BME280;71861;52.364;6.580;2023-10-19T08:05:57;99403.91;;;13.44;96.34
82262;BME280;71861;52.364;6.580;2023-10-19T08:08:22;99405.28;;;13.47;96.23
82262;BME280;71861;52.364;6.580;2023-10-19T08:10:49;99400.66;;;13.49;96.33
82262;BME280;71861;52.364;6.580;2023-10-19T08:13:15;99401.06;;;13.52;96.17
82262;BME280;71861;52.364;6.580;2023-10-19T08:15:40;99406.63;;;13.56;96.17
82262;BME280;71861;52.364;6.580;2023-10-19T08:18:05;99413.03;;;13.60;96.17
82262;BME280;71861;52.364;6.580;2023-10-19T08:20:30;99417.03;;;13.62;95.92
82262;BME280;71861;52.364;6.580;2023-10-19T08:22:56;99410.19;;;13.68;96.22
82262;BME280;71861;52.364;6.580;2023-10-19T08:25:22;99414.94;;;13.77;96.01
82262;BME280;71861;52.364;6.580;2023-10-19T08:27:48;99413.28;;;13.83;95.74
82262;BME280;71861;52.364;6.580;2023-10-19T08:30:15;99410.84;;;13.88;95.80
82262;BME280;71861;52.364;6.580;2023-10-19T08:32:42;99412.22;;;13.90;95.40
82262;BME280;71861;52.364;6.580;2023-10-19T08:35:08;99414.97;;;13.95;95.44
82262;BME280;71861;52.364;6.580;2023-10-19T08:37:39;99415.59;;;13.97;95.14
82262;BME280;71861;52.364;6.580;2023-10-19T08:40:11;99408.91;;;14.01;95.04
82262;BME280;71861;52.364;6.580;2023-10-19T08:42:40;99415.88;;;14.07;95.01
82262;BME280;71861;52.364;6.580;2023-10-19T08:45:06;99411.81;;;14.11;94.94
82262;BME280;71861;52.364;6.580;2023-10-19T08:47:33;99410.38;;;14.15;95.04
82262;BME280;71861;52.364;6.580;2023-10-19T08:49:59;99409.16;;;14.18;94.88
82262;BME280;71861;52.364;6.580;2023-10-19T08:52:24;99409.53;;;14.21;95.01
82262;BME280;71861;52.364;6.580;2023-10-19T08:54:51;99399.66;;;14.23;94.82
82262;BME280;71861;52.364;6.580;2023-10-19T08:57:16;99407.66;;;14.28;94.79
82262;BME280;71861;52.364;6.580;2023-10-19T08:59:43;99407.03;;;14.33;94.88
82262;BME280;71861;52.364;6.580;2023-10-19T09:02:08;99408.22;;;14.37;94.63
82262;BME280;71861;52.364;6.580;2023-10-19T09:04:40;99410.38;;;14.40;94.51
82262;BME280;71861;52.364;6.580;2023-10-19T09:07:06;99408.81;;;14.39;94.48
82262;BME280;71861;52.364;6.580;2023-10-19T09:09:35;99413.94;;;14.45;94.68
82262;BME280;71861;52.364;6.580;2023-10-19T09:12:04;99407.72;;;14.46;94.18
82262;BME280;71861;52.364;6.580;2023-10-19T09:14:30;99414.69;;;14.52;94.23
82262;BME280;71861;52.364;6.580;2023-10-19T09:16:57;99408.81;;;14.57;94.29
82262;BME280;71861;52.364;6.580;2023-10-19T09:19:38;99398.06;;;14.65;94.28
82262;BME280;71861;52.364;6.580;2023-10-19T09:22:04;99394.91;;;14.74;93.98
82262;BME280;71861;52.364;6.580;2023-10-19T09:24:35;99395.22;;;14.84;93.68
82262;BME280;71861;52.364;6.580;2023-10-19T09:27:03;99389.69;;;14.92;93.72
82262;BME280;71861;52.364;6.580;2023-10-19T09:29:29;99383.56;;;14.98;93.22
82262;BME280;71861;52.364;6.580;2023-10-19T09:31:55;99386.66;;;15.07;92.97
82262;BME280;71861;52.364;6.580;2023-10-19T09:34:23;99382.94;;;15.15;93.39
82262;BME280;71861;52.364;6.580;2023-10-19T09:36:48;99382.19;;;15.26;93.51
82262;BME280;71861;52.364;6.580;2023-10-19T09:39:14;99389.94;;;15.32;92.77
82262;BME280;71861;52.364;6.580;2023-10-19T09:41:41;99381.44;;;15.37;92.01
82262;BME280;71861;52.364;6.580;2023-10-19T09:44:07;99377.00;;;15.37;92.11
82262;BME280;71861;52.364;6.580;2023-10-19T09:46:36;99381.38;;;15.43;91.96
82262;BME280;71861;52.364;6.580;2023-10-19T09:49:04;99388.91;;;15.51;91.85
82262;BME280;71861;52.364;6.580;2023-10-19T09:51:29;99378.00;;;15.54;91.38
82262;BME280;71861;52.364;6.580;2023-10-19T09:54:00;99386.97;;;15.58;91.29
82262;BME280;71861;52.364;6.580;2023-10-19T09:56:27;99386.31;;;15.63;91.22
82262;BME280;71861;52.364;6.580;2023-10-19T09:58:57;99375.50;;;15.71;90.88
82262;BME280;71861;52.364;6.580;2023-10-19T10:01:23;99373.00;;;15.76;90.82
82262;BME280;71861;52.364;6.580;2023-10-19T10:03:49;99371.31;;;15.81;91.21
82262;BME280;71861;52.364;6.580;2023-10-19T10:06:28;99373.72;;;15.94;91.13
82262;BME280;71861;52.364;6.580;2023-10-19T10:08:54;99367.91;;;16.04;90.28
82262;BME280;71861;52.364;6.580;2023-10-19T10:11:21;99369.72;;;16.15;90.07
82262;BME280;71861;52.364;6.580;2023-10-19T10:13:47;99366.16;;;16.21;90.24
82262;BME280;71861;52.364;6.580;2023-10-19T10:16:16;99375.06;;;16.20;88.06
82262;BME280;71861;52.364;6.580;2023-10-19T10:18:41;99372.00;;;16.23;88.95
82262;BME280;71861;52.364;6.580;2023-10-19T10:21:07;99384.50;;;16.21;87.68
82262;BME280;71861;52.364;6.580;2023-10-19T10:23:45;99385.22;;;16.28;89.13
82262;BME280;71861;52.364;6.580;2023-10-19T10:26:12;99385.56;;;16.31;88.90
82262;BME280;71861;52.364;6.580;2023-10-19T10:28:39;99376.44;;;16.34;88.49
82262;BME280;71861;52.364;6.580;2023-10-19T10:31:08;99377.47;;;16.44;89.42
82262;BME280;71861;52.364;6.580;2023-10-19T10:33:43;99364.25;;;16.51;88.80
82262;BME280;71861;52.364;6.580;2023-10-19T10:36:12;99370.59;;;16.55;88.48
82262;BME280;71861;52.364;6.580;2023-10-19T10:38:38;99364.06;;;16.69;88.98
82262;BME280;71861;52.364;6.580;2023-10-19T10:41:03;99358.91;;;16.86;88.54
82262;BME280;71861;52.364;6.580;2023-10-19T10:43:29;99365.16;;;16.96;86.74
82262;BME280;71861;52.364;6.580;2023-10-19T10:46:04;99372.72;;;17.09;87.90
82262;BME280;71861;52.364;6.580;2023-10-19T10:48:29;99372.38;;;17.34;88.03
82262;BME280;71861;52.364;6.580;2023-10-19T10:50:55;99370.59;;;17.51;87.19
82262;BME280;71861;52.364;6.580;2023-10-19T10:53:20;99375.88;;;17.67;85.77
82262;BME280;71861;52.364;6.580;2023-10-19T10:55:49;99379.22;;;17.79;84.96
82262;BME280;71861;52.364;6.580;2023-10-19T10:58:15;99373.00;;;17.85;83.64
82262;BME280;71861;52.364;6.580;2023-10-19T11:00:44;99373.97;;;17.96;83.91
82262;BME280;71861;52.364;6.580;2023-10-19T11:03:10;99367.72;;;18.18;84.25
82262;BME280;71861;52.364;6.580;2023-10-19T11:05:36;99366.34;;;18.49;83.46
82262;BME280;71861;52.364;6.580;2023-10-19T11:10:30;99363.72;;;19.45;80.65
82262;BME280;71861;52.364;6.580;2023-10-19T11:13:08;99368.50;;;19.85;80.72
82262;BME280;71861;52.364;6.580;2023-10-19T11:15:34;99369.84;;;20.24;75.40
82262;BME280;71861;52.364;6.580;2023-10-19T11:18:00;99373.19;;;20.61;77.08
82262;BME280;71861;52.364;6.580;2023-10-19T11:20:26;99361.41;;;20.84;71.31
82262;BME280;71861;52.364;6.580;2023-10-19T11:22:55;99355.94;;;21.05;72.33
82262;BME280;71861;52.364;6.580;2023-10-19T11:25:27;99362.06;;;21.21;70.05
82262;BME280;71861;52.364;6.580;2023-10-19T11:27:56;99352.28;;;21.06;68.85
82262;BME280;71861;52.364;6.580;2023-10-19T11:30:25;99349.88;;;21.00;68.19
82262;BME280;71861;52.364;6.580;2023-10-19T11:32:51;99349.34;;;21.13;71.55
82262;BME280;71861;52.364;6.580;2023-10-19T11:35:21;99334.06;;;21.25;67.33
82262;BME280;71861;52.364;6.580;2023-10-19T11:37:50;99336.44;;;21.36;67.17
82262;BME280;71861;52.364;6.580;2023-10-19T11:40:16;99335.13;;;21.44;69.35
82262;BME280;71861;52.364;6.580;2023-10-19T11:42:42;99323.50;;;21.80;68.54
82262;BME280;71861;52.364;6.580;2023-10-19T11:45:07;99313.19;;;21.59;65.88
82262;BME280;71861;52.364;6.580;2023-10-19T11:47:33;99300.22;;;21.12;66.68
82262;BME280;71861;52.364;6.580;2023-10-19T11:49:58;99300.13;;;20.72;68.95
82262;BME280;71861;52.364;6.580;2023-10-19T11:52:23;99299.25;;;20.51;69.90
82262;BME280;71861;52.364;6.580;2023-10-19T11:54:48;99319.19;;;20.22;69.51
82262;BME280;71861;52.364;6.580;2023-10-19T11:57:14;99327.13;;;20.27;71.85
82262;BME280;71861;52.364;6.580;2023-10-19T11:59:39;99327.22;;;20.47;69.72
82262;BME280;71861;52.364;6.580;2023-10-19T12:02:05;99322.31;;;20.76;70.11
82262;BME280;71861;52.364;6.580;2023-10-19T12:04:31;99314.22;;;21.07;69.21
82262;BME280;71861;52.364;6.580;2023-10-19T12:06:57;99324.25;;;21.05;67.90
82262;BME280;71861;52.364;6.580;2023-10-19T12:09:22;99320.44;;;20.71;68.35
82262;BME280;71861;52.364;6.580;2023-10-19T12:11:50;99314.53;;;20.39;68.85
82262;BME280;71861;52.364;6.580;2023-10-19T12:14:18;99313.41;;;20.20;70.92
82262;BME280;71861;52.364;6.580;2023-10-19T12:16:43;99300.34;;;20.04;70.78
82262;BME280;71861;52.364;6.580;2023-10-19T12:19:10;99286.44;;;19.71;71.66
82262;BME280;71861;52.364;6.580;2023-10-19T12:21:35;99292.03;;;19.43;72.70
82262;BME280;71861;52.364;6.580;2023-10-19T12:24:02;99281.59;;;19.27;73.52
82262;BME280;71861;52.364;6.580;2023-10-19T12:26:29;99288.06;;;19.14;74.27
82262;BME280;71861;52.364;6.580;2023-10-19T12:28:55;99278.72;;;18.97;75.05
82262;BME280;71861;52.364;6.580;2023-10-19T12:31:20;99282.03;;;18.87;75.31
82262;BME280;71861;52.364;6.580;2023-10-19T12:33:47;99280.41;;;18.81;75.49
82262;BME280;71861;52.364;6.580;2023-10-19T12:36:12;99290.88;;;18.76;76.27
82262;BME280;71861;52.364;6.580;2023-10-19T12:38:56;99284.56;;;18.77;76.75
82262;BME280;71861;52.364;6.580;2023-10-19T12:41:22;99271.13;;;18.74;76.45
82262;BME280;71861;52.364;6.580;2023-10-19T12:43:47;99259.03;;;18.78;76.86
82262;BME280;71861;52.364;6.580;2023-10-19T12:46:13;99264.84;;;18.80;76.45
82262;BME280;71861;52.364;6.580;2023-10-19T12:48:39;99268.63;;;18.89;76.93
82262;BME280;71861;52.364;6.580;2023-10-19T12:51:04;99259.84;;;19.10;76.13
82262;BME280;71861;52.364;6.580;2023-10-19T12:53:34;99256.38;;;19.31;75.42
82262;BME280;71861;52.364;6.580;2023-10-19T12:56:00;99260.66;;;19.37;76.25
82262;BME280;71861;52.364;6.580;2023-10-19T12:58:25;99269.66;;;19.46;75.56
82262;BME280;71861;52.364;6.580;2023-10-19T13:00:52;99268.22;;;19.65;74.80
82262;BME280;71861;52.364;6.580;2023-10-19T13:03:19;99261.44;;;19.74;72.39
82262;BME280;71861;52.364;6.580;2023-10-19T13:05:44;99272.44;;;19.66;72.66
82262;BME280;71861;52.364;6.580;2023-10-19T13:08:13;99273.34;;;19.45;73.18
82262;BME280;71861;52.364;6.580;2023-10-19T13:10:39;99280.31;;;19.29;74.40
82262;BME280;71861;52.364;6.580;2023-10-19T13:13:07;99283.09;;;19.18;75.13
82262;BME280;71861;52.364;6.580;2023-10-19T13:15:33;99273.22;;;19.03;75.20
82262;BME280;71861;52.364;6.580;2023-10-19T13:17:59;99277.03;;;18.86;74.27
82262;BME280;71861;52.364;6.580;2023-10-19T13:20:25;99280.03;;;18.73;75.27
82262;BME280;71861;52.364;6.580;2023-10-19T13:22:51;99287.78;;;18.58;75.38
82262;BME280;71861;52.364;6.580;2023-10-19T13:25:16;99284.97;;;18.43;75.53
82262;BME280;71861;52.364;6.580;2023-10-19T13:27:44;99278.78;;;18.32;75.69
82262;BME280;71861;52.364;6.580;2023-10-19T13:30:11;99265.81;;;18.25;76.16
82262;BME280;71861;52.364;6.580;2023-10-19T13:32:37;99253.91;;;18.23;76.34
82262;BME280;71861;52.364;6.580;2023-10-19T13:35:02;99252.09;;;18.23;76.33
82262;BME280;71861;52.364;6.580;2023-10-19T13:37:28;99259.00;;;18.29;76.79
82262;BME280;71861;52.364;6.580;2023-10-19T13:39:53;99251.91;;;18.30;76.71
82262;BME280;71861;52.364;6.580;2023-10-19T13:42:19;99251.91;;;18.30;76.93
82262;BME280;71861;52.364;6.580;2023-10-19T13:44:44;99254.72;;;18.23;76.26
82262;BME280;71861;52.364;6.580;2023-10-19T13:47:10;99247.88;;;18.22;76.92
82262;BME280;71861;52.364;6.580;2023-10-19T13:49:36;99254.16;;;18.21;76.76
82262;BME280;71861;52.364;6.580;2023-10-19T13:52:02;99252.03;;;18.18;76.69
82262;BME280;71861;52.364;6.580;2023-10-19T13:54:29;99250.44;;;18.17;76.72
82262;BME280;71861;52.364;6.580;2023-10-19T13:56:54;99255.41;;;18.14;76.76
82262;BME280;71861;52.364;6.580;2023-10-19T13:59:20;99250.38;;;18.12;76.35
82262;BME280;71861;52.364;6.580;2023-10-19T14:01:45;99242.97;;;18.09;76.78
82262;BME280;71861;52.364;6.580;2023-10-19T14:04:10;99246.66;;;18.08;76.79
82262;BME280;71861;52.364;6.580;2023-10-19T14:06:36;99252.94;;;18.07;77.08
82262;BME280;71861;52.364;6.580;2023-10-19T14:09:02;99252.94;;;18.07;77.23
82262;BME280;71861;52.364;6.580;2023-10-19T14:11:30;99252.47;;;18.10;77.10
82262;BME280;71861;52.364;6.580;2023-10-19T14:13:55;99250.63;;;18.11;76.75
82262;BME280;71861;52.364;6.580;2023-10-19T14:16:20;99242.97;;;18.09;76.99
82262;BME280;71861;52.364;6.580;2023-10-19T14:18:48;99241.41;;;18.08;77.10
82262;BME280;71861;52.364;6.580;2023-10-19T14:21:13;99250.78;;;18.04;77.15
82262;BME280;71861;52.364;6.580;2023-10-19T14:23:39;99249.72;;;18.00;77.48
82262;BME280;71861;52.364;6.580;2023-10-19T14:26:05;99250.19;;;17.97;77.68
82262;BME280;71861;52.364;6.580;2023-10-19T14:28:31;99241.75;;;17.95;77.91
82262;BME280;71861;52.364;6.580;2023-10-19T14:30:56;99245.91;;;17.91;78.13
82262;BME280;71861;52.364;6.580;2023-10-19T14:33:21;99244.34;;;17.90;78.28
82262;BME280;71861;52.364;6.580;2023-10-19T14:35:47;99245.09;;;17.91;78.57
82262;BME280;71861;52.364;6.580;2023-10-19T14:38:12;99244.34;;;17.90;78.94
82262;BME280;71861;52.364;6.580;2023-10-19T14:40:39;99245.84;;;17.86;78.61
82262;BME280;71861;52.364;6.580;2023-10-19T14:43:10;99241.31;;;17.82;78.86
82262;BME280;71861;52.364;6.580;2023-10-19T14:45:35;99246.25;;;17.78;79.08
82262;BME280;71861;52.364;6.580;2023-10-19T14:48:01;99236.22;;;17.75;79.57
82262;BME280;71861;52.364;6.580;2023-10-19T14:50:29;99231.22;;;17.74;79.50
82262;BME280;71861;52.364;6.580;2023-10-19T14:52:54;99222.25;;;17.70;79.65
82262;BME280;71861;52.364;6.580;2023-10-19T14:55:20;99231.88;;;17.64;79.81
82262;BME280;71861;52.364;6.580;2023-10-19T14:57:47;99223.94;;;17.59;80.44
82262;BME280;71861;52.364;6.580;2023-10-19T15:00:14;99229.44;;;17.58;80.68
82262;BME280;71861;52.364;6.580;2023-10-19T15:02:58;99223.84;;;17.54;80.86
82262;BME280;71861;52.364;6.580;2023-10-19T15:05:26;99224.34;;;17.51;81.19
82262;BME280;71861;52.364;6.580;2023-10-19T15:07:52;99219.81;;;17.47;81.71
82262;BME280;71861;52.364;6.580;2023-10-19T15:10:18;99217.88;;;17.42;82.34
82262;BME280;71861;52.364;6.580;2023-10-19T15:12:43;99217.78;;;17.37;82.56
82262;BME280;71861;52.364;6.580;2023-10-19T15:15:09;99212.69;;;17.31;82.81
82262;BME280;71861;52.364;6.580;2023-10-19T15:17:38;99214.72;;;17.24;83.17
82262;BME280;71861;52.364;6.580;2023-10-19T15:20:07;99213.28;;;17.16;83.52
82262;BME280;71861;52.364;6.580;2023-10-19T15:22:35;99213.44;;;17.10;84.00
82262;BME280;71861;52.364;6.580;2023-10-19T15:25:00;99216.22;;;17.03;84.29
82262;BME280;71861;52.364;6.580;2023-10-19T15:27:27;99214.31;;;16.99;84.75
82262;BME280;71861;52.364;6.580;2023-10-19T15:29:56;99212.88;;;16.91;85.11
82262;BME280;71861;52.364;6.580;2023-10-19T15:32:25;99210.97;;;16.87;85.44
82262;BME280;71861;52.364;6.580;2023-10-19T15:34:50;99200.59;;;16.80;85.79
82262;BME280;71861;52.364;6.580;2023-10-19T15:37:16;99195.44;;;16.69;86.28
82262;BME280;71861;52.364;6.580;2023-10-19T15:39:41;99200.91;;;16.67;86.59
82262;BME280;71861;52.364;6.580;2023-10-19T15:42:08;99202.41;;;16.63;86.96
82262;BME280;71861;52.364;6.580;2023-10-19T15:44:33;99192.16;;;16.61;87.23
82262;BME280;71861;52.364;6.580;2023-10-19T15:46:58;99185.00;;;16.57;87.53
82262;BME280;71861;52.364;6.580;2023-10-19T15:49:24;99190.72;;;16.54;87.96
82262;BME280;71861;52.364;6.580;2023-10-19T15:51:49;99187.22;;;16.48;88.19
82262;BME280;71861;52.364;6.580;2023-10-19T15:54:16;99187.09;;;16.43;88.43
82262;BME280;71861;52.364;6.580;2023-10-19T15:56:41;99183.31;;;16.39;88.56
82262;BME280;71861;52.364;6.580;2023-10-19T15:59:07;99185.31;;;16.32;88.84
82262;BME280;71861;52.364;6.580;2023-10-19T16:01:32;99184.19;;;16.28;88.94